Windsorville, Connecticut
Current Conditions -  °F | °C
As of 2:51 AM on Saturday 25 Oct 2014 (Local Time) from KBDL Reporting Station
Clear Clear  
Wind Chill: 50°   Ceiling: Unl
Heat Index: 50°   Visibility: 10mi
Dew Point: 37°   Wind: 6mph
Humidity: 61%   Direction: 330°NNW
Pressure: 29.79"   Gusts: NA
Location:  41.9042°N, 72.5445°W
Report Text: KBDL 250651Z 33005KT 10SM CLR 10/03 A2979 RMK AO2 SLP088 T01000028
Loading
Personal Weather Stations






























Interactive Weather Map
Tropical Storm Tracking
New forecast layout! Learn more

10-Day Weather Forecast

Advertisements
Track Severe Weather on mobile